John H. — WAC6768 — position and weather

sailwx.info

Track history (hours):
 
Tides and Currents Weather Stations Pressure Air Temp Water Temp Dewpoint Dewpoint Depression Visibility Wind Speed Wind Dir Waves Ship Positions

John H.

Owner: CROSS SOUND FERRY SERVICE INC, NEW LOUDON, CT. More information available from US FCC via Universal Licensing System and Coast Guard Vessel Documentation Center.

Last reported at 2017-May-23 15:52 UTC. Time now 2017-May-23 17:04 UTC.
Position N 41°13' W 072°11'.

Length 70 m.

Type: Passenger vessel. MMSI: 366934890.

Date/timePositionNaut miles runAvg speedWind from/ knotsBaromVisibWave heightAir tempDewpointWater temp
2017-May-23 15:52N 41°13' W 072°11'1 0.5
2017-May-23 13:41N 41°14' W 072°09'5 3.1
2017-May-23 12:11N 41°10' W 072°14'313.4
2017-May-23 11:58N 41°13' W 072°12'1 0.0
2017-May-22 23:27N 41°13' W 072°11'1 0.7
2017-May-22 21:59N 41°12' W 072°13'2 1.0
2017-May-22 19:34N 41°13' W 072°10'213.6
2017-May-22 19:26N 41°12' W 072°12'3 1.7
2017-May-22 17:50N 41°14' W 072°09'1 0.4
2017-May-22 15:36N 41°14' W 072°10'215.8
2017-May-22 15:29N 41°13' W 072°11'1 0.6
2017-May-22 13:53N 41°13' W 072°11'1 0.6
2017-May-22 11:34N 41°14' W 072°09'312.7
2017-May-22 11:21N 41°12' W 072°12'3 0.4
2017-May-22 02:20N 41°09' W 072°14'310.2
2017-May-22 02:00N 41°12' W 072°12'612.3
2017-May-22 01:30N 41°17' W 072°06'3 2.0
2017-May-22 00:11N 41°19' W 072°05'213.6
2017-May-22 00:00N 41°17' W 072°06'713.6
2017-May-21 23:31N 41°12' W 072°12'3 2.8
2017-May-21 22:23N 41°09' W 072°14'511.9
2017-May-21 22:00N 41°13' W 072°11'2 0.6
2017-May-21 19:39N 41°14' W 072°10'212.8
2017-May-21 19:28N 41°12' W 072°12'2 1.5
2017-May-21 18:05N 41°11' W 072°13'213.4
2017-May-21 17:58N 41°12' W 072°12'8 3.8
2017-May-21 15:57N 41°17' W 072°05'814.5
2017-May-21 15:22N 41°11' W 072°13'2 2.2
2017-May-21 14:17N 41°09' W 072°14'6 2.1
2017-May-21 11:34N 41°14' W 072°09'112.3
2017-May-21 11:30N 41°13' W 072°10'5 0.4
2017-May-21 00:15N 41°09' W 072°14'311.8
2017-May-21 00:00N 41°12' W 072°13'713.0
2017-May-20 23:29N 41°17' W 072°07'6 2.9
2017-May-20 21:23N 41°12' W 072°12'2 1.7
2017-May-20 20:06N 41°10' W 072°13'212.8
2017-May-20 19:56N 41°12' W 072°13'3 1.3
2017-May-20 17:36N 41°14' W 072°09'213.6
2017-May-20 17:28N 41°13' W 072°11'1 0.8
2017-May-20 15:59N 41°12' W 072°12'3 1.3
2017-May-20 13:34N 41°14' W 072°09'114.5
2017-May-20 13:30N 41°13' W 072°10'2 1.3
2017-May-20 11:55N 41°12' W 072°13'7 0.6
2017-May-19 23:55N 41°17' W 072°05'613.9
2017-May-19 23:30N 41°13' W 072°10'2 1.4
2017-May-19 22:04N 41°12' W 072°13'213.8
2017-May-19 21:57N 41°13' W 072°11'5 2.6
2017-May-19 20:03N 41°17' W 072°06'612.7
2017-May-19 19:34N 41°12' W 072°12'2 1.1
2017-May-19 18:04N 41°12' W 072°14'113.6
2017-May-19 18:00N 41°12' W 072°13'3 1.4
2017-May-19 15:37N 41°14' W 072°09'214.4
2017-May-19 15:28N 41°12' W 072°11'1 0.3
2017-May-19 11:30N 41°13' W 072°10'5 0.5
2017-May-19 00:21N 41°09' W 072°14'411.2
2017-May-19 00:00N 41°13' W 072°12'612.0
2017-May-18 23:30N 41°17' W 072°06'5 2.5
2017-May-18 21:35N 41°13' W 072°10'213.9
2017-May-18 21:27N 41°12' W 072°12'1 0.5
2017-May-18 20:02N 41°12' W 072°13'214.1
2017-May-18 19:55N 41°13' W 072°11'1 0.6
2017-May-18 17:38N 41°14' W 072°09'213.0
2017-May-18 17:30N 41°12' W 072°11'2 1.2
2017-May-18 16:03N 41°11' W 072°13'113.4
2017-May-18 16:00N 41°12' W 072°12'1 0.5
2017-May-18 13:29N 41°13' W 072°11'1 0.6
2017-May-18 11:53N 41°13' W 072°11'6 0.5
2017-May-17 23:53N 41°17' W 072°05'514.6
2017-May-17 23:30N 41°13' W 072°10'5 4.0
2017-May-17 22:17N 41°09' W 072°14'6 2.1
2017-May-17 19:38N 41°14' W 072°10'212.7
2017-May-17 19:30N 41°12' W 072°11'2 1.1
2017-May-17 17:58N 41°12' W 072°14'4 1.9
2017-May-17 15:42N 41°14' W 072°08'312.4
2017-May-17 15:28N 41°12' W 072°12'1 0.4
2017-May-17 14:02N 41°12' W 072°12'7 3.3
2017-May-17 11:53N 41°17' W 072°05'714.7
2017-May-17 11:26N 41°12' W 072°12'4 0.3
2017-May-17 00:18N 41°09' W 072°14'310.9
2017-May-17 00:00N 41°12' W 072°12'612.2
2017-May-16 23:30N 41°16' W 072°07'2 0.9
2017-May-16 21:45N 41°15' W 072°08'414.7
2017-May-16 21:28N 41°12' W 072°12'1 0.6
2017-May-16 19:59N 41°12' W 072°13'3 1.2
2017-May-16 17:39N 41°14' W 072°10'212.6
2017-May-16 17:30N 41°13' W 072°11'3 2.2
2017-May-16 16:09N 41°10' W 072°13'212.1
2017-May-16 16:00N 41°12' W 072°13'4 1.6
2017-May-16 13:40N 41°14' W 072°09'214.2
2017-May-16 13:30N 41°12' W 072°11'1 0.6
2017-May-16 12:04N 41°12' W 072°12'112.1
2017-May-16 11:59N 41°12' W 072°11'7 0.6
2017-May-16 00:01N 41°18' W 072°05'112.9
2017-May-15 23:57N 41°17' W 072°05'613.8
2017-May-15 23:30N 41°13' W 072°11'3 2.7
2017-May-15 22:18N 41°10' W 072°13'411.4
2017-May-15 21:57N 41°13' W 072°10'1 0.1
2017-May-15 11:38N 41°14' W 072°09'214.6
2017-May-15 11:29N 41°12' W 072°11'4 0.4
2017-May-15 02:00N 41°09' W 072°14'611.9
2017-May-15 01:30N 41°14' W 072°10'6 3.8
2017-May-15 00:02N 41°18' W 072°05'212.8
2017-May-14 23:55N 41°17' W 072°06'613.8
2017-May-14 23:30N 41°12' W 072°11'4 3.4
2017-May-14 22:21N 41°09' W 072°14'410.4
2017-May-14 22:00N 41°13' W 072°11'2 0.9
2017-May-14 19:44N 41°14' W 072°09'1 0.3
2017-May-14 15:38N 41°13' W 072°11'212.0
2017-May-14 15:29N 41°12' W 072°12'1 0.4
2017-May-14 13:58N 41°12' W 072°13'3 1.5
2017-May-14 11:42N 41°14' W 072°09'313.3
2017-May-14 11:31N 41°12' W 072°12'2 1.8
2017-May-14 10:23N 41°11' W 072°13'912.6
2017-May-14 09:41N 41°17' W 072°06'1 0.1
2017-May-14 01:58N 41°18' W 072°05'511.5
2017-May-14 01:30N 41°14' W 072°11'611.3
2017-May-14 01:00N 41°09' W 072°14'0 0.6
2017-May-14 00:21N 41°09' W 072°14'3 9.6
2017-May-14 00:00N 41°12' W 072°13'612.7
2017-May-13 23:30N 41°16' W 072°06'1 0.3
2017-May-13 21:47N 41°15' W 072°07'514.3
2017-May-13 21:26N 41°12' W 072°12'2 2.0
2017-May-13 20:12N 41°10' W 072°14'311.5
2017-May-13 19:59N 41°13' W 072°13'3 1.1
2017-May-13 17:38N 41°14' W 072°09'213.0
2017-May-13 17:27N 41°12' W 072°12'2 1.7
2017-May-13 16:03N 41°10' W 072°13'212.6
2017-May-13 15:53N 41°12' W 072°13'  
Track history (hours):
 
Tides and Currents Weather Stations Pressure Air Temp Water Temp Dewpoint Dewpoint Depression Visibility Wind Speed Wind Dir Waves Ship Positions

John H.

Owner: CROSS SOUND FERRY SERVICE INC, NEW LOUDON, CT. More information available from US FCC via Universal Licensing System and Coast Guard Vessel Documentation Center.

Last reported at 2017-May-23 15:52 UTC. Time now 2017-May-23 17:04 UTC.
Position N 41°13' W 072°11'.

Length 70 m.

Type: Passenger vessel. MMSI: 366934890.

Date/timePositionNaut miles runAvg speedWind from/ knotsBaromVisibWave heightAir tempDewpointWater temp
2017-May-23 15:52N 41°13' W 072°11'1 0.5
2017-May-23 13:41N 41°14' W 072°09'5 3.1
2017-May-23 12:11N 41°10' W 072°14'313.4
2017-May-23 11:58N 41°13' W 072°12'1 0.0
2017-May-22 23:27N 41°13' W 072°11'1 0.7
2017-May-22 21:59N 41°12' W 072°13'2 1.0
2017-May-22 19:34N 41°13' W 072°10'213.6
2017-May-22 19:26N 41°12' W 072°12'3 1.7
2017-May-22 17:50N 41°14' W 072°09'1 0.4
2017-May-22 15:36N 41°14' W 072°10'215.8
2017-May-22 15:29N 41°13' W 072°11'1 0.6
2017-May-22 13:53N 41°13' W 072°11'1 0.6
2017-May-22 11:34N 41°14' W 072°09'312.7
2017-May-22 11:21N 41°12' W 072°12'3 0.4
2017-May-22 02:20N 41°09' W 072°14'310.2
2017-May-22 02:00N 41°12' W 072°12'612.3
2017-May-22 01:30N 41°17' W 072°06'3 2.0
2017-May-22 00:11N 41°19' W 072°05'213.6
2017-May-22 00:00N 41°17' W 072°06'713.6
2017-May-21 23:31N 41°12' W 072°12'3 2.8
2017-May-21 22:23N 41°09' W 072°14'511.9
2017-May-21 22:00N 41°13' W 072°11'2 0.6
2017-May-21 19:39N 41°14' W 072°10'212.8
2017-May-21 19:28N 41°12' W 072°12'2 1.5
2017-May-21 18:05N 41°11' W 072°13'213.4
2017-May-21 17:58N 41°12' W 072°12'8 3.8
2017-May-21 15:57N 41°17' W 072°05'814.5
2017-May-21 15:22N 41°11' W 072°13'2 2.2
2017-May-21 14:17N 41°09' W 072°14'6 2.1
2017-May-21 11:34N 41°14' W 072°09'112.3
2017-May-21 11:30N 41°13' W 072°10'5 0.4
2017-May-21 00:15N 41°09' W 072°14'311.8
2017-May-21 00:00N 41°12' W 072°13'713.0
2017-May-20 23:29N 41°17' W 072°07'6 2.9
2017-May-20 21:23N 41°12' W 072°12'2 1.7
2017-May-20 20:06N 41°10' W 072°13'212.8
2017-May-20 19:56N 41°12' W 072°13'3 1.3
2017-May-20 17:36N 41°14' W 072°09'213.6
2017-May-20 17:28N 41°13' W 072°11'1 0.8
2017-May-20 15:59N 41°12' W 072°12'3 1.3
2017-May-20 13:34N 41°14' W 072°09'114.5
2017-May-20 13:30N 41°13' W 072°10'2 1.3
2017-May-20 11:55N 41°12' W 072°13'7 0.6
2017-May-19 23:55N 41°17' W 072°05'613.9
2017-May-19 23:30N 41°13' W 072°10'2 1.4
2017-May-19 22:04N 41°12' W 072°13'213.8
2017-May-19 21:57N 41°13' W 072°11'5 2.6
2017-May-19 20:03N 41°17' W 072°06'612.7
2017-May-19 19:34N 41°12' W 072°12'2 1.1
2017-May-19 18:04N 41°12' W 072°14'113.6
2017-May-19 18:00N 41°12' W 072°13'3 1.4
2017-May-19 15:37N 41°14' W 072°09'214.4
2017-May-19 15:28N 41°12' W 072°11'1 0.3
2017-May-19 11:30N 41°13' W 072°10'5 0.5
2017-May-19 00:21N 41°09' W 072°14'411.2
2017-May-19 00:00N 41°13' W 072°12'612.0
2017-May-18 23:30N 41°17' W 072°06'5 2.5
2017-May-18 21:35N 41°13' W 072°10'213.9
2017-May-18 21:27N 41°12' W 072°12'1 0.5
2017-May-18 20:02N 41°12' W 072°13'214.1
2017-May-18 19:55N 41°13' W 072°11'1 0.6
2017-May-18 17:38N 41°14' W 072°09'213.0
2017-May-18 17:30N 41°12' W 072°11'2 1.2
2017-May-18 16:03N 41°11' W 072°13'113.4
2017-May-18 16:00N 41°12' W 072°12'1 0.5
2017-May-18 13:29N 41°13' W 072°11'1 0.6
2017-May-18 11:53N 41°13' W 072°11'6 0.5
2017-May-17 23:53N 41°17' W 072°05'514.6
2017-May-17 23:30N 41°13' W 072°10'5 4.0
2017-May-17 22:17N 41°09' W 072°14'6 2.1
2017-May-17 19:38N 41°14' W 072°10'212.7
2017-May-17 19:30N 41°12' W 072°11'2 1.1
2017-May-17 17:58N 41°12' W 072°14'4 1.9
2017-May-17 15:42N 41°14' W 072°08'312.4
2017-May-17 15:28N 41°12' W 072°12'1 0.4
2017-May-17 14:02N 41°12' W 072°12'7 3.3
2017-May-17 11:53N 41°17' W 072°05'714.7
2017-May-17 11:26N 41°12' W 072°12'4 0.3
2017-May-17 00:18N 41°09' W 072°14'310.9
2017-May-17 00:00N 41°12' W 072°12'612.2
2017-May-16 23:30N 41°16' W 072°07'2 0.9
2017-May-16 21:45N 41°15' W 072°08'414.7
2017-May-16 21:28N 41°12' W 072°12'1 0.6
2017-May-16 19:59N 41°12' W 072°13'3 1.2
2017-May-16 17:39N 41°14' W 072°10'212.6
2017-May-16 17:30N 41°13' W 072°11'3 2.2
2017-May-16 16:09N 41°10' W 072°13'212.1
2017-May-16 16:00N 41°12' W 072°13'4 1.6
2017-May-16 13:40N 41°14' W 072°09'214.2
2017-May-16 13:30N 41°12' W 072°11'1 0.6
2017-May-16 12:04N 41°12' W 072°12'112.1
2017-May-16 11:59N 41°12' W 072°11'7 0.6
2017-May-16 00:01N 41°18' W 072°05'112.9
2017-May-15 23:57N 41°17' W 072°05'613.8
2017-May-15 23:30N 41°13' W 072°11'3 2.7
2017-May-15 22:18N 41°10' W 072°13'411.4
2017-May-15 21:57N 41°13' W 072°10'1 0.1
2017-May-15 11:38N 41°14' W 072°09'214.6
2017-May-15 11:29N 41°12' W 072°11'4 0.4
2017-May-15 02:00N 41°09' W 072°14'611.9
2017-May-15 01:30N 41°14' W 072°10'6 3.8
2017-May-15 00:02N 41°18' W 072°05'212.8
2017-May-14 23:55N 41°17' W 072°06'613.8
2017-May-14 23:30N 41°12' W 072°11'4 3.4
2017-May-14 22:21N 41°09' W 072°14'410.4
2017-May-14 22:00N 41°13' W 072°11'2 0.9
2017-May-14 19:44N 41°14' W 072°09'1 0.3
2017-May-14 15:38N 41°13' W 072°11'212.0
2017-May-14 15:29N 41°12' W 072°12'1 0.4
2017-May-14 13:58N 41°12' W 072°13'3 1.5
2017-May-14 11:42N 41°14' W 072°09'313.3
2017-May-14 11:31N 41°12' W 072°12'2 1.8
2017-May-14 10:23N 41°11' W 072°13'912.6
2017-May-14 09:41N 41°17' W 072°06'1 0.1
2017-May-14 01:58N 41°18' W 072°05'511.5
2017-May-14 01:30N 41°14' W 072°11'611.3
2017-May-14 01:00N 41°09' W 072°14'0 0.6
2017-May-14 00:21N 41°09' W 072°14'3 9.6
2017-May-14 00:00N 41°12' W 072°13'612.7
2017-May-13 23:30N 41°16' W 072°06'1 0.3
2017-May-13 21:47N 41°15' W 072°07'514.3
2017-May-13 21:26N 41°12' W 072°12'2 2.0
2017-May-13 20:12N 41°10' W 072°14'311.5
2017-May-13 19:59N 41°13' W 072°13'3 1.1
2017-May-13 17:38N 41°14' W 072°09'213.0
2017-May-13 17:27N 41°12' W 072°12'2 1.7
2017-May-13 16:03N 41°10' W 072°13'212.6
2017-May-13 15:53N 41°12' W 072°13'  

Dump ship's entire track history